Lucernemines, Pennsylvania
Current Conditions -  °F | °C
As of 2:15 PM on Saturday 25 Oct 2014 (Local Time) from KIDI Reporting Station
Overcast Overcast  
Wind Chill: 61°   Ceiling: 5000
Heat Index: 61°   Visibility: 10mi
Dew Point: 50°   Wind: 17mph
Humidity: 68%   Direction: 260°W
Pressure: 29.84"   Gusts: 25mph
Location:  40.56°N, 79.13°W
Report Text: KIDI 251815Z AUTO 26015G22KT 10SM FEW030 FEW046 OVC050 16/10 A2984 RMK A01
Loading
Personal Weather Stations






























Interactive Weather Map
Tropical Storm Tracking
New forecast layout! Learn more

10-Day Weather Forecast

Advertisements
Track Severe Weather on mobile